Home   Weather   USA   Las Cruces   Past weeks
Flag for USA

Past Weather in Las Cruces, New Mexico, USA — Yesterday and Last 2 Weeks

Currently: 58 °F. Clear. (Weather station: Las Cruces International, USA). See more current weather

Past Weather in Las Cruces — Graph

°F

Las Cruces Temperature Yesterday

Maximum temperature yesterday: 80 °F (at 4:35 pm)
Minimum temperature yesterday: 57 °F (at 3:35 am)
Average temperature yesterday: 68 °F

High & Low Weather Summary for the Past Weeks

 TemperatureHumidityPressure
High92 °F (Sep 17, 4:35 pm)100% (Sep 18, 7:35 pm)30.38 "Hg (Sep 18, 7:35 pm)
Low52 °F (Sep 29, 7:15 am)12% (Sep 28, 3:15 pm)29.95 "Hg (Sep 17, 5:35 pm)
Average74 °F41%30.15 "Hg
* Reported Sep 16 4:15 am — Oct 1 4:55 am, Las Cruces. Weather by CustomWeather, © 2022

Note: Actual official high and low records may vary slightly from our data, if they occured in-between our weather recording intervals... More about our weather records

Las Cruces Weather History for the Previous 24 Hours

Scroll right to see more
 ConditionsComfort  
Time TempWeatherWind HumidityBarometerVisibility
4:55 am
Sat, Oct 1
56 °FClear.3 mph59%30.05 "Hg10 mi
4:35 am55 °FClear.No wind58%30.04 "Hg10 mi
4:15 am55 °FClear.No wind57%30.04 "Hg10 mi
3:55 am56 °FClear.No wind59%30.04 "Hg10 mi
3:35 am58 °FClear.No wind59%30.04 "Hg10 mi
3:15 am58 °FClear.No wind56%30.04 "Hg10 mi
2:55 am60 °FClear.5 mph54%30.04 "Hg10 mi
2:35 am59 °FClear.5 mph55%30.04 "Hg10 mi
2:15 am61 °FClear.5 mph52%30.04 "Hg10 mi
1:35 am63 °FClear.9 mph48%30.03 "Hg10 mi
1:15 am64 °FClear.7 mph45%30.04 "Hg10 mi
12:55 am64 °FClear.8 mph41%30.04 "Hg10 mi
12:35 am65 °FPassing clouds.5 mph40%30.04 "Hg10 mi
12:15 am66 °FPassing clouds.7 mph37%30.05 "Hg10 mi
11:35 pm
Fri, Sep 30
66 °FPartly cloudy.No wind36%30.04 "Hg10 mi
11:15 pm68 °FMostly cloudy.No wind35%30.03 "Hg10 mi
10:55 pm67 °FPassing clouds.No wind36%30.04 "Hg10 mi
10:15 pm70 °FOvercast.5 mph34%30.03 "Hg10 mi
9:55 pm70 °FPassing clouds.5 mph34%30.03 "Hg10 mi
9:35 pm70 °FClear.5 mph33%30.03 "Hg10 mi
9:15 pm70 °FClear.5 mph34%30.03 "Hg10 mi
8:35 pm70 °FClear.6 mph33%30.02 "Hg10 mi
8:15 pm68 °FClear.6 mph34%30.01 "Hg10 mi
7:55 pm69 °FClear.3 mph33%30.01 "Hg10 mi
7:35 pm70 °FClear.No wind32%30.00 "Hg10 mi
7:15 pm72 °FClear.No wind29%30.00 "Hg10 mi
5:35 pm79 °FSunny.6 mph24%30.00 "Hg10 mi
5:15 pm78 °FSunny.6 mph25%30.00 "Hg10 mi
4:35 pm80 °FSunny.6 mph24%30.02 "Hg10 mi
4:15 pm78 °FSunny.7 mph25%30.03 "Hg10 mi
3:55 pm77 °FSunny.No wind26%30.03 "Hg10 mi
3:35 pm78 °FScattered clouds.8 mph25%30.04 "Hg10 mi
3:15 pm76 °FSunny.8 mph29%30.06 "Hg10 mi
2:35 pm78 °FSunny.10 mph26%30.07 "Hg10 mi
1:35 pm79 °FOvercast.12 mph22%30.10 "Hg10 mi
1:15 pm80 °FBroken clouds.10 mph21%30.11 "Hg10 mi
12:55 pm80 °FScattered clouds.5 mph22%30.12 "Hg10 mi
12:35 pm76 °FSunny.7 mph25%30.13 "Hg10 mi
12:15 pm76 °FScattered clouds.5 mph25%30.14 "Hg10 mi
11:35 am76 °FPartly sunny.7 mph25%30.16 "Hg10 mi
11:15 am77 °FScattered clouds.9 mph23%30.16 "Hg10 mi
10:35 am71 °FDrizzle. Cloudy.5 mph29%30.17 "Hg10 mi
10:15 am69 °FLight rain. Broken clouds.8 mph32%30.17 "Hg10 mi
9:55 am72 °FScattered clouds.8 mph27%30.17 "Hg10 mi
9:35 am71 °FScattered clouds.7 mph28%30.17 "Hg10 mi
9:15 am71 °FScattered clouds.6 mph27%30.16 "Hg10 mi
8:35 am66 °FSunny.3 mph32%30.16 "Hg10 mi
8:15 am64 °FSunny.No wind35%30.16 "Hg10 mi
7:35 am59 °FSunny.No wind40%30.16 "Hg10 mi
7:15 am60 °FSunny.3 mph39%30.16 "Hg10 mi
6:35 am60 °FClear.6 mph38%30.16 "Hg10 mi
6:15 am60 °FClear.7 mph39%30.16 "Hg10 mi
Weather by CustomWeather, © 2022

See weather overview